createdAt,value
2018-11-25T00:00:09.812Z,13.80
2018-11-25T00:02:39.026Z,13.70
2018-11-25T00:05:08.548Z,17.82
2018-11-25T00:07:38.047Z,15.72
2018-11-25T00:10:07.795Z,15.05
2018-11-25T00:12:39.297Z,17.25
2018-11-25T00:15:09.109Z,21.17
2018-11-25T00:17:37.619Z,23.42
2018-11-25T00:20:09.422Z,21.52
2018-11-25T00:22:37.886Z,17.85
2018-11-25T00:25:07.898Z,18.92
2018-11-25T00:27:36.315Z,15.78
2018-11-25T00:30:05.066Z,19.55
2018-11-25T00:32:33.497Z,20.72
2018-11-25T00:35:01.972Z,20.92
2018-11-25T00:37:30.444Z,19.05
2018-11-25T00:39:58.879Z,19.77
2018-11-25T00:42:27.415Z,22.45
2018-11-25T00:44:55.895Z,20.92
2018-11-25T00:47:24.323Z,23.22
2018-11-25T00:49:52.814Z,21.45
2018-11-25T00:52:21.226Z,23.02
2018-11-25T00:54:49.653Z,21.15
2018-11-25T00:57:18.062Z,23.00
2018-11-25T00:59:46.524Z,22.15
2018-11-25T01:02:14.938Z,24.40
2018-11-25T01:04:43.396Z,22.17
2018-11-25T01:07:11.851Z,23.27
2018-11-25T01:09:40.287Z,27.10
2018-11-25T01:12:08.684Z,23.85
2018-11-25T01:14:37.670Z,23.42
2018-11-25T01:17:06.388Z,29.35
2018-11-25T01:19:34.869Z,29.48
2018-11-25T01:22:03.682Z,25.43
2018-11-25T01:24:33.723Z,23.25
2018-11-25T01:27:02.132Z,25.65
2018-11-25T01:29:31.106Z,21.70
2018-11-25T01:31:59.546Z,23.40
2018-11-25T01:34:28.010Z,24.82
2018-11-25T01:36:56.420Z,24.77
2018-11-25T01:39:24.834Z,26.85
2018-11-25T01:41:53.176Z,26.07
2018-11-25T01:44:21.587Z,25.90
2018-11-25T01:46:53.373Z,25.55
2018-11-25T01:49:22.595Z,26.85
2018-11-25T01:51:50.179Z,29.92
2018-11-25T01:54:18.663Z,25.45
2018-11-25T01:56:47.122Z,31.48
2018-11-25T01:59:18.097Z,32.13
2018-11-25T02:01:48.496Z,35.70
2018-11-25T02:04:16.989Z,36.25
2018-11-25T02:06:45.395Z,37.33
2018-11-25T02:09:13.794Z,44.90
2018-11-25T02:11:42.482Z,44.23
2018-11-25T02:14:10.838Z,39.38
2018-11-25T02:16:39.262Z,42.73
2018-11-25T02:19:07.786Z,35.73
2018-11-25T02:21:36.180Z,36.85
2018-11-25T02:24:04.609Z,36.93
2018-11-25T02:26:32.956Z,35.90
2018-11-25T02:29:03.908Z,34.27
2018-11-25T02:31:32.308Z,34.25
2018-11-25T02:34:00.684Z,37.80
2018-11-25T02:36:29.130Z,51.92
2018-11-25T02:38:58.596Z,44.48
2018-11-25T02:41:27.078Z,36.70
2018-11-25T02:43:55.487Z,37.45
2018-11-25T02:46:28.636Z,36.42
2018-11-25T02:48:57.176Z,35.65
2018-11-25T02:51:26.306Z,31.50
2018-11-25T02:53:54.808Z,32.25
2018-11-25T02:56:26.902Z,33.85
2018-11-25T02:58:55.686Z,34.85
2018-11-25T03:01:24.120Z,32.25
2018-11-25T03:03:52.631Z,37.00
2018-11-25T03:06:21.060Z,32.23
2018-11-25T03:08:52.195Z,36.68
2018-11-25T03:11:20.672Z,34.70
2018-11-25T03:13:49.144Z,34.83
2018-11-25T03:16:17.547Z,32.50
2018-11-25T03:18:45.954Z,29.00
2018-11-25T03:21:14.499Z,28.62
2018-11-25T03:23:43.164Z,31.12
2018-11-25T03:26:11.586Z,36.00
2018-11-25T03:28:40.000Z,34.90
2018-11-25T03:31:09.562Z,32.03
2018-11-25T03:33:38.054Z,34.58
2018-11-25T03:36:06.574Z,28.62
2018-11-25T03:38:35.029Z,31.00
2018-11-25T03:41:03.509Z,28.80
2018-11-25T03:43:31.908Z,31.90
2018-11-25T03:46:00.336Z,28.92
2018-11-25T03:48:28.796Z,30.15
2018-11-25T03:50:57.295Z,34.67
2018-11-25T03:53:25.767Z,29.45
2018-11-25T03:55:54.217Z,33.83
2018-11-25T03:58:22.684Z,33.85
2018-11-25T04:00:51.131Z,32.23
2018-11-25T04:03:19.527Z,37.90
2018-11-25T04:05:48.204Z,38.23
2018-11-25T04:08:16.670Z,31.82
2018-11-25T04:10:45.223Z,33.25
2018-11-25T04:13:13.709Z,30.70
2018-11-25T04:15:42.101Z,39.13
2018-11-25T04:18:10.574Z,42.08
2018-11-25T04:20:39.072Z,44.85
2018-11-25T04:23:07.460Z,40.63
2018-11-25T04:25:35.881Z,40.20
2018-11-25T04:28:04.406Z,36.85
2018-11-25T04:30:32.874Z,37.40
2018-11-25T04:33:01.257Z,39.33
2018-11-25T04:35:29.726Z,37.10
2018-11-25T04:37:58.145Z,37.83
2018-11-25T04:40:26.610Z,34.53
2018-11-25T04:42:55.048Z,32.80
2018-11-25T04:45:23.611Z,33.83
2018-11-25T04:47:52.044Z,32.85
2018-11-25T04:50:21.303Z,35.92
2018-11-25T04:52:49.924Z,33.48
2018-11-25T04:55:18.332Z,27.65
2018-11-25T04:57:49.474Z,30.55
2018-11-25T05:00:18.159Z,32.93
2018-11-25T05:02:46.713Z,30.40
2018-11-25T05:05:23.315Z,34.20
2018-11-25T05:07:51.815Z,30.90
2018-11-25T05:10:20.131Z,32.30
2018-11-25T05:12:48.615Z,33.85
2018-11-25T05:15:19.881Z,33.00
2018-11-25T05:17:48.382Z,36.45
2018-11-25T05:20:17.475Z,31.30
2018-11-25T05:22:45.931Z,36.28
2018-11-25T05:25:15.256Z,31.17
2018-11-25T05:27:43.733Z,33.78
2018-11-25T05:30:15.226Z,36.55
2018-11-25T05:32:43.717Z,36.00
2018-11-25T05:35:13.375Z,34.88
2018-11-25T05:37:41.815Z,31.35
2018-11-25T05:40:11.427Z,32.35
2018-11-25T05:42:39.815Z,32.55
2018-11-25T05:45:12.625Z,25.60
2018-11-25T05:47:41.054Z,32.45
2018-11-25T05:50:10.992Z,28.95
2018-11-25T05:52:39.523Z,35.70
2018-11-25T05:55:08.916Z,32.65
2018-11-25T05:57:37.373Z,30.72
2018-11-25T06:00:15.732Z,27.60
2018-11-25T06:02:44.215Z,29.63
2018-11-25T06:05:12.676Z,31.07
2018-11-25T06:07:41.411Z,30.08
2018-11-25T06:10:11.738Z,34.33
2018-11-25T06:12:40.378Z,29.00
2018-11-25T06:15:11.210Z,31.17
2018-11-25T06:17:39.693Z,31.97
2018-11-25T06:20:13.137Z,31.87
2018-11-25T06:22:41.804Z,31.02
2018-11-25T06:25:13.488Z,32.55
2018-11-25T06:27:41.941Z,33.10
2018-11-25T06:30:13.759Z,31.48
2018-11-25T06:32:42.252Z,27.95
2018-11-25T06:35:11.998Z,32.20
2018-11-25T06:37:40.454Z,35.48
2018-11-25T06:40:11.344Z,32.08
2018-11-25T06:42:39.800Z,30.90
2018-11-25T06:45:13.086Z,30.08
2018-11-25T06:47:41.606Z,31.73
2018-11-25T06:50:12.446Z,30.70
2018-11-25T06:52:39.875Z,27.60
2018-11-25T06:55:10.707Z,31.30
2018-11-25T06:57:39.230Z,32.03
2018-11-25T07:00:25.895Z,29.20
2018-11-25T07:02:54.460Z,28.12
2018-11-25T07:05:22.912Z,31.50
2018-11-25T07:07:51.370Z,35.30
2018-11-25T07:10:20.896Z,36.28
2018-11-25T07:12:51.412Z,31.55
2018-11-25T07:15:19.855Z,34.65
2018-11-25T07:17:48.523Z,38.58
2018-11-25T07:20:18.719Z,33.35
2018-11-25T07:22:47.370Z,38.15
2018-11-25T07:25:19.323Z,39.40
2018-11-25T07:27:47.788Z,35.08
2018-11-25T07:30:18.648Z,31.37
2018-11-25T07:32:47.141Z,39.33
2018-11-25T07:35:15.555Z,34.15
2018-11-25T07:37:44.261Z,38.78
2018-11-25T07:40:14.927Z,34.03
2018-11-25T07:42:43.436Z,33.00
2018-11-25T07:45:13.204Z,34.33
2018-11-25T07:47:42.614Z,40.83
2018-11-25T07:50:12.257Z,33.78
2018-11-25T07:52:41.267Z,31.93
2018-11-25T07:55:14.091Z,34.70
2018-11-25T07:57:44.066Z,42.55
2018-11-25T08:00:19.126Z,41.18
2018-11-25T08:02:47.658Z,34.53
2018-11-25T08:05:17.538Z,38.10
2018-11-25T08:07:45.996Z,36.98
2018-11-25T08:10:15.329Z,36.58
2018-11-25T08:12:44.070Z,39.75
2018-11-25T08:15:13.452Z,36.25
2018-11-25T08:17:41.993Z,42.98
2018-11-25T08:20:12.488Z,40.88
2018-11-25T08:22:41.119Z,40.28
2018-11-25T08:25:12.444Z,40.67
2018-11-25T08:27:41.216Z,39.50
2018-11-25T08:30:20.189Z,40.52
2018-11-25T08:32:48.743Z,32.78
2018-11-25T08:35:17.633Z,34.40
2018-11-25T08:37:46.156Z,36.83
2018-11-25T08:40:22.473Z,36.50
2018-11-25T08:42:51.110Z,38.75
2018-11-25T08:45:19.991Z,38.33
2018-11-25T08:47:48.693Z,36.83
2018-11-25T08:50:18.296Z,36.63
2018-11-25T08:52:51.691Z,37.88
2018-11-25T08:55:22.651Z,37.80
2018-11-25T08:57:51.327Z,36.17
2018-11-25T09:00:21.354Z,34.48
2018-11-25T09:02:50.637Z,36.38
2018-11-25T09:05:19.083Z,38.40
2018-11-25T09:07:47.694Z,39.90
2018-11-25T09:10:22.693Z,43.50
2018-11-25T09:12:56.860Z,46.63
2018-11-25T09:15:27.239Z,36.28
2018-11-25T09:17:57.179Z,35.70
2018-11-25T09:20:25.977Z,37.23
2018-11-25T09:22:55.495Z,39.00
2018-11-25T09:25:26.181Z,37.67
2018-11-25T09:27:55.157Z,38.45
2018-11-25T09:30:25.626Z,41.35
2018-11-25T09:32:55.782Z,40.67
2018-11-25T09:35:24.770Z,46.68
2018-11-25T09:37:53.303Z,45.58
2018-11-25T09:40:24.073Z,48.35
2018-11-25T09:42:53.459Z,36.50
2018-11-25T09:45:22.631Z,47.27
2018-11-25T09:47:51.603Z,42.98
2018-11-25T09:50:22.205Z,41.50
2018-11-25T09:52:51.099Z,40.67
2018-11-25T09:55:21.732Z,41.42
2018-11-25T09:57:54.067Z,43.23
2018-11-25T10:00:23.768Z,42.90
2018-11-25T10:02:52.633Z,48.87
2018-11-25T10:05:21.092Z,59.70
2018-11-25T10:07:49.529Z,55.08
2018-11-25T10:10:21.833Z,57.88
2018-11-25T10:12:51.521Z,56.23
2018-11-25T10:15:22.974Z,50.63
2018-11-25T10:17:59.075Z,55.95
2018-11-25T10:20:21.133Z,59.65
2018-11-25T10:22:49.590Z,57.83
2018-11-25T10:25:18.214Z,55.63
2018-11-25T10:27:47.396Z,70.10
2018-11-25T10:30:19.455Z,61.25
2018-11-25T10:32:49.717Z,62.78
2018-11-25T10:35:18.288Z,60.75
2018-11-25T10:37:46.967Z,56.08
2018-11-25T10:40:16.591Z,73.78
2018-11-25T10:42:45.265Z,58.80
2018-11-25T10:45:25.559Z,63.63
2018-11-25T10:47:54.257Z,69.27
2018-11-25T10:50:23.447Z,62.55
2018-11-25T10:52:51.904Z,73.25
2018-11-25T10:55:21.049Z,70.67
2018-11-25T10:57:51.152Z,74.90
2018-11-25T11:00:31.700Z,76.72
2018-11-25T11:03:05.610Z,63.73
2018-11-25T11:05:39.359Z,69.35
2018-11-25T11:08:08.456Z,57.17
2018-11-25T11:10:36.979Z,64.65
2018-11-25T11:13:06.517Z,63.30
2018-11-25T11:15:34.996Z,64.67
2018-11-25T11:18:05.294Z,61.98
2018-11-25T11:20:33.800Z,69.45
2018-11-25T11:23:17.486Z,59.53
2018-11-25T11:25:45.920Z,72.10
2018-11-25T11:28:14.421Z,60.52
2018-11-25T11:30:43.443Z,53.68
2018-11-25T11:33:11.871Z,61.65
2018-11-25T11:35:41.952Z,57.62
2018-11-25T11:38:10.512Z,66.92
2018-11-25T11:40:39.022Z,64.87
2018-11-25T11:43:07.496Z,60.70
2018-11-25T11:45:35.935Z,77.37
2018-11-25T11:48:04.360Z,66.82
2018-11-25T11:50:32.748Z,92.00
2018-11-25T11:53:01.208Z,86.45
2018-11-25T11:55:29.619Z,80.17
2018-11-25T11:57:58.183Z,96.15
2018-11-25T12:00:29.116Z,80.83
2018-11-25T12:02:57.703Z,71.65
2018-11-25T12:05:26.224Z,69.87
2018-11-25T12:07:54.627Z,75.70
2018-11-25T12:10:23.335Z,78.42
2018-11-25T12:12:51.819Z,75.37
2018-11-25T12:15:30.675Z,79.80
2018-11-25T12:17:57.312Z,82.17
2018-11-25T12:20:26.795Z,72.40
2018-11-25T12:23:10.424Z,74.70
2018-11-25T12:25:38.928Z,66.00
2018-11-25T12:28:07.769Z,70.37
2018-11-25T12:30:36.719Z,67.53
2018-11-25T12:33:05.240Z,67.60
2018-11-25T12:35:33.749Z,75.78
2018-11-25T12:38:02.825Z,82.30
2018-11-25T12:40:32.177Z,81.40
2018-11-25T12:43:00.927Z,87.05
2018-11-25T12:45:31.251Z,75.67
2018-11-25T12:47:59.737Z,74.00
2018-11-25T12:50:28.289Z,75.62
2018-11-25T12:52:56.692Z,63.55
2018-11-25T12:55:26.589Z,74.92
2018-11-25T12:57:58.692Z,69.15
2018-11-25T13:00:31.896Z,79.30
2018-11-25T13:03:00.977Z,80.10
2018-11-25T13:05:30.017Z,85.67
2018-11-25T13:08:00.610Z,84.67
2018-11-25T13:10:29.146Z,82.00
2018-11-25T13:12:57.524Z,78.20
2018-11-25T13:15:26.119Z,86.25
2018-11-25T13:17:54.587Z,89.40
2018-11-25T13:20:22.992Z,71.82
2018-11-25T13:22:51.437Z,80.57
2018-11-25T13:25:20.047Z,79.97
2018-11-25T13:27:48.646Z,80.30
2018-11-25T13:30:23.611Z,72.47
2018-11-25T13:32:54.100Z,82.88
2018-11-25T13:35:22.937Z,77.08
2018-11-25T13:37:51.377Z,81.82
2018-11-25T13:40:19.884Z,85.72
2018-11-25T13:42:48.263Z,81.80
2018-11-25T13:45:18.362Z,73.90
2018-11-25T13:47:46.822Z,82.45
2018-11-25T13:50:15.767Z,79.05
2018-11-25T13:52:44.193Z,90.12
2018-11-25T13:55:15.104Z,78.72
2018-11-25T13:57:43.824Z,80.38
2018-11-25T14:00:45.064Z,83.40
2018-11-25T14:03:16.651Z,84.58
2018-11-25T14:05:52.619Z,80.65
2018-11-25T14:08:32.892Z,81.45
2018-11-25T14:11:06.847Z,89.77
2018-11-25T14:13:35.415Z,99.07
2018-11-25T14:16:04.200Z,78.70
2018-11-25T14:18:35.899Z,71.85
2018-11-25T14:21:33.663Z,92.75
2018-11-25T14:24:02.227Z,100.65
2018-11-25T14:26:34.623Z,76.77
2018-11-25T14:29:04.048Z,71.10
2018-11-25T14:31:37.461Z,78.78
2018-11-25T14:34:06.420Z,71.40
2018-11-25T14:36:34.855Z,73.05
2018-11-25T14:39:03.507Z,69.67
2018-11-25T14:41:32.096Z,74.40
2018-11-25T14:44:00.632Z,72.87
2018-11-25T14:46:29.116Z,73.25
2018-11-25T14:48:57.615Z,81.40
2018-11-25T14:51:27.115Z,73.22
2018-11-25T14:54:14.684Z,75.65
2018-11-25T14:56:43.118Z,75.75
2018-11-25T14:59:11.812Z,77.95
2018-11-25T15:01:40.275Z,73.72
2018-11-25T15:04:19.342Z,76.67
2018-11-25T15:06:50.096Z,79.10
2018-11-25T15:09:19.335Z,66.57
2018-11-25T15:11:47.924Z,79.95
2018-11-25T15:14:17.489Z,55.70
2018-11-25T15:19:41.938Z,59.50
2018-11-25T15:22:10.522Z,58.42
2018-11-25T15:24:39.122Z,51.55
2018-11-25T15:27:07.898Z,57.88
2018-11-25T15:29:36.372Z,41.35
2018-11-25T16:14:36.440Z,38.75
2018-11-25T16:17:05.361Z,40.28
2018-11-25T16:19:33.951Z,38.70
2018-11-25T16:22:02.468Z,39.08
2018-11-25T16:24:31.921Z,37.67
2018-11-25T16:47:21.049Z,33.85
2018-11-25T16:49:49.717Z,37.23
2018-11-25T16:52:18.183Z,33.05
2018-11-25T16:54:46.681Z,32.75
2018-11-25T16:57:15.777Z,33.85
2018-11-25T16:59:43.757Z,32.05
2018-11-25T17:02:12.221Z,31.85
2018-11-25T17:04:40.715Z,31.62
2018-11-25T17:07:09.181Z,28.50
2018-11-25T17:09:37.686Z,35.08
2018-11-25T17:12:06.315Z,30.50
2018-11-25T17:14:34.801Z,29.48
2018-11-25T17:17:03.975Z,28.55
2018-11-25T17:19:34.310Z,36.88
2018-11-25T17:22:01.472Z,33.53
2018-11-25T17:25:02.954Z,30.40
2018-11-25T17:27:31.734Z,35.33
2018-11-25T17:30:00.281Z,40.48
2018-11-25T17:32:28.666Z,36.40
2018-11-25T17:34:57.296Z,27.45
2018-11-25T17:37:25.780Z,35.48
2018-11-25T17:39:54.222Z,29.37
2018-11-25T17:42:22.699Z,35.17
2018-11-25T17:44:51.215Z,33.33
2018-11-25T17:47:19.724Z,33.25
2018-11-25T17:49:48.170Z,32.05
2018-11-25T17:52:17.668Z,32.63
2018-11-25T17:54:46.399Z,31.90
2018-11-25T17:57:14.801Z,32.60
2018-11-25T17:59:43.262Z,30.75
2018-11-25T18:02:11.756Z,43.68
2018-11-25T18:04:40.239Z,38.67
2018-11-25T18:07:08.674Z,38.13
2018-11-25T18:09:37.224Z,36.90
2018-11-25T18:12:05.822Z,31.62
2018-11-25T18:14:34.324Z,34.75
2018-11-25T18:17:02.798Z,29.30
2018-11-25T18:19:31.282Z,49.48
2018-11-25T18:22:07.328Z,39.35
2018-11-25T18:24:36.395Z,35.58
2018-11-25T18:27:05.566Z,31.75
2018-11-25T18:29:34.002Z,32.35
2018-11-25T18:32:02.504Z,40.78
2018-11-25T18:34:31.756Z,38.15
2018-11-25T18:37:00.392Z,31.05
2018-11-25T18:39:28.970Z,55.92
2018-11-25T18:41:57.576Z,62.67
2018-11-25T18:44:27.216Z,72.70
2018-11-25T18:46:56.293Z,68.17
2018-11-25T18:49:24.899Z,40.28
2018-11-25T18:51:53.388Z,41.95
2018-11-25T18:54:21.995Z,32.73
2018-11-25T18:56:50.493Z,32.08
2018-11-25T19:02:31.959Z,28.73
2018-11-25T19:05:02.477Z,29.52
2018-11-25T19:07:31.709Z,30.32
2018-11-25T19:10:00.201Z,30.70
2018-11-25T19:12:28.825Z,30.90
2018-11-25T19:15:20.719Z,34.25
2018-11-25T19:18:54.252Z,36.35
2018-11-25T19:22:44.373Z,43.28
2018-11-25T19:25:17.365Z,29.07
2018-11-25T19:31:04.952Z,33.50
2018-11-25T19:34:04.686Z,32.33
2018-11-25T19:37:10.037Z,32.75
2018-11-25T19:40:01.410Z,71.97
2018-11-25T19:42:29.976Z,49.93
2018-11-25T19:45:30.292Z,37.70
2018-11-25T19:47:59.821Z,55.23
2018-11-25T19:53:30.736Z,45.98
2018-11-25T19:55:59.256Z,37.58
2018-11-25T19:58:27.920Z,38.80
2018-11-25T20:00:56.664Z,39.65
2018-11-25T20:03:25.620Z,41.15
2018-11-25T20:05:54.042Z,55.90
2018-11-25T20:08:22.480Z,35.10
2018-11-25T20:10:51.283Z,43.25
2018-11-25T20:13:19.892Z,41.18
2018-11-25T20:15:49.352Z,31.37
2018-11-25T20:18:18.173Z,36.50
2018-11-25T20:20:51.136Z,32.90
2018-11-25T20:23:20.482Z,33.15
2018-11-25T20:25:49.016Z,24.90
2018-11-25T21:23:00.624Z,54.93
2018-11-25T22:24:35.293Z,23.12
2018-11-25T22:27:04.267Z,27.02
2018-11-25T22:29:36.101Z,22.65
2018-11-25T22:32:08.672Z,23.73
2018-11-25T22:34:43.351Z,21.62
2018-11-25T22:37:11.993Z,20.90
2018-11-25T22:39:41.901Z,24.07
2018-11-25T22:42:10.833Z,25.37
2018-11-25T22:44:39.616Z,23.25
2018-11-25T22:47:08.957Z,24.10
2018-11-25T22:49:37.545Z,26.95
2018-11-25T22:52:06.302Z,26.45
2018-11-25T22:54:35.365Z,24.72
2018-11-25T22:57:05.745Z,27.17
2018-11-25T22:59:34.811Z,22.55
2018-11-25T23:02:03.976Z,27.27
2018-11-25T23:06:47.043Z,24.15
2018-11-25T23:09:15.583Z,21.30
2018-11-25T23:11:43.991Z,24.98
2018-11-25T23:14:12.457Z,22.77
2018-11-25T23:16:40.925Z,24.98
2018-11-25T23:19:09.421Z,27.52
2018-11-25T23:21:37.825Z,25.52
2018-11-25T23:24:06.379Z,21.37
2018-11-25T23:26:34.824Z,22.50
2018-11-25T23:29:03.285Z,24.70
2018-11-25T23:31:31.737Z,26.17
2018-11-25T23:34:00.095Z,26.95
2018-11-25T23:36:28.559Z,25.92
2018-11-25T23:38:57.095Z,105.58
2018-11-25T23:41:25.599Z,66.53
2018-11-25T23:43:54.064Z,40.55
2018-11-25T23:46:22.469Z,33.73
2018-11-25T23:48:51.023Z,25.62
2018-11-25T23:51:19.448Z,21.75
2018-11-25T23:53:48.237Z,26.02
2018-11-25T23:56:17.880Z,23.98
2018-11-25T23:58:46.457Z,21.93
